ADDS TAF Board (Experimental) INFO Settings
IDs: Format: Expanded Condensed

KPHX - Phoenix/Sky Harbor, AZ, US

Issued at 1446 UTC 05 Jul 2015
Updated at: 1458 UTC 05 Jul 2015
Time1451Z 05/15Z 05/16Z 05/17Z 05/18Z 05/19Z 05/20Z 05/21Z 05/22Z 05/23Z 06/00Z 06/01Z 06/02Z 06/03Z
Type OBS PRVL PRVL PRVL PRVL PRVL PRVL PRVL PRVL PRVL PRVL PRVL PRVL PRVL
VIS 10 >6 >6 >6 >6 >6 >6 >6 >6 >6 >6 >6 >6 >6
CIG 190 200 200 200 200 150 150 150 150 200 200 200 200 200
Cover BKN BKN BKN BKN BKN BKN BKN BKN BKN BKN BKN BKN BKN BKN
FltCat VFR VFR VFR VFR VFR VFR VFR VFR VFR VFR VFR VFR VFR VFR
WX -- -- -- -- -- -- -- -- -- -- -- -- -- --
WDir 230 230 230 230 230 190 190 190 190 260 260 260 260 260
WSpd 6 6 6 6 6 10 10 10 10 9 9 9 9 9
WGst -- -- -- -- -- -- -- -- -- -- -- -- -- --
R07/25
XWnd -4 -4 -4 -4 -4 -10 -10 -10 -10 -2 -2 -2 -2 -2
HWnd -5 -5 -5 -5 -5 -2 -2 -2 -2 -9 -9 -9 -9 -9
R08/26
XWnd -4 -4 -4 -4 -4 -10 -10 -10 -10 -2 -2 -2 -2 -2
HWnd -5 -5 -5 -5 -5 -2 -2 -2 -2 -9 -9 -9 -9 -9

NOTE: TEMPO conditions in [brackets]. Keep in mind TEMPO conditions might be better (lower impact) than prevailing conditions.

Raw TAF
KPHX 051446Z 0515/0612 23006KT P6SM SCT120 BKN200
  FM051900 19010KT P6SM SCT080 BKN150
  FM052300 26009KT P6SM SCT080 BKN200


Raw METAR
KPHX 051451Z 23006KT 10SM SCT130 BKN190 BKN250 32/17 A2990 RMK AO2 SLP103 T03170167 51020
KPHX 051351Z 26006KT 10SM SCT130 BKN190 BKN250 32/16 A2988 RMK AO2 SLP097 T03170156
KPHX 051251Z 27008KT 10SM BKN190 BKN250 32/15 A2987 RMK AO2 SLP092 T03170150
KPHX 051151Z 28011KT 10SM BKN190 32/15 A2984 RMK AO2 SLP083 T03220150 10367 20322 53010

METAR Board
Radar Display
Forecast Discussion

TAF Board Legend

Potential Impact
Threat None Slight Moderate High
Visibility (sm) ≥5.1 5.1>X≥3 3>X≥1 <1
Ceiling (100 ft) ≥30.1 30.1>X≥10 10>X≥5 <5
Wind Speed (kt) <10 10≤X<20 20≤X<30 ≥30
Wind Gust (kt) <15 15≤X<25 25≤X<35 ≥35
Weather No Wx Reported VCTS,-TS,-FZRA,SN TS,FZRA +TS,+FZRA,+SN